sensor_id;sensor_type;location;lat;lon;timestamp;temperature;humidity
80290;SHT30;69592;44.804;-0.550;2024-02-26T00:00:29;11.75;96.99
80290;SHT30;69592;44.804;-0.550;2024-02-26T00:02:55;11.86;96.84
80290;SHT30;69592;44.804;-0.550;2024-02-26T00:05:20;11.86;97.06
80290;SHT30;69592;44.804;-0.550;2024-02-26T00:07:46;11.85;97.06
80290;SHT30;69592;44.804;-0.550;2024-02-26T00:10:13;11.85;96.84
80290;SHT30;69592;44.804;-0.550;2024-02-26T00:12:38;11.75;97.02
80290;SHT30;69592;44.804;-0.550;2024-02-26T00:15:05;11.61;97.34
80290;SHT30;69592;44.804;-0.550;2024-02-26T00:17:30;11.61;97.49
80290;SHT30;69592;44.804;-0.550;2024-02-26T00:19:56;11.55;97.73
80290;SHT30;69592;44.804;-0.550;2024-02-26T00:22:22;11.59;97.76
80290;SHT30;69592;44.804;-0.550;2024-02-26T00:24:47;11.55;98.00
80290;SHT30;69592;44.804;-0.550;2024-02-26T00:27:12;11.55;98.23
80290;SHT30;69592;44.804;-0.550;2024-02-26T00:29:38;11.72;97.83
80290;SHT30;69592;44.804;-0.550;2024-02-26T00:32:03;11.75;98.10
80290;SHT30;69592;44.804;-0.550;2024-02-26T00:34:29;11.78;97.98
80290;SHT30;69592;44.804;-0.550;2024-02-26T00:36:54;11.70;98.00
80290;SHT30;69592;44.804;-0.550;2024-02-26T00:39:19;11.75;98.17
80290;SHT30;69592;44.804;-0.550;2024-02-26T00:41:45;11.70;98.41
80290;SHT30;69592;44.804;-0.550;2024-02-26T00:44:10;11.70;98.42
80290;SHT30;69592;44.804;-0.550;2024-02-26T00:46:36;11.62;98.50
80290;SHT30;69592;44.804;-0.550;2024-02-26T00:49:02;11.65;98.47
80290;SHT30;69592;44.804;-0.550;2024-02-26T00:51:28;11.68;98.40
80290;SHT30;69592;44.804;-0.550;2024-02-26T00:53:54;11.69;98.33
80290;SHT30;69592;44.804;-0.550;2024-02-26T00:56:19;11.62;98.38
80290;SHT30;69592;44.804;-0.550;2024-02-26T00:58:45;11.72;98.34
80290;SHT30;69592;44.804;-0.550;2024-02-26T01:01:10;11.78;98.15
80290;SHT30;69592;44.804;-0.550;2024-02-26T01:03:35;11.79;98.14
80290;SHT30;69592;44.804;-0.550;2024-02-26T01:06:01;11.90;98.09
80290;SHT30;69592;44.804;-0.550;2024-02-26T01:08:26;11.92;98.02
80290;SHT30;69592;44.804;-0.550;2024-02-26T01:10:52;11.97;97.78
80290;SHT30;69592;44.804;-0.550;2024-02-26T01:13:17;11.97;97.92
80290;SHT30;69592;44.804;-0.550;2024-02-26T01:15:43;11.97;98.11
80290;SHT30;69592;44.804;-0.550;2024-02-26T01:18:09;11.96;98.05
80290;SHT30;69592;44.804;-0.550;2024-02-26T01:20:34;11.92;98.08
80290;SHT30;69592;44.804;-0.550;2024-02-26T01:23:00;11.92;97.74
80290;SHT30;69592;44.804;-0.550;2024-02-26T01:25:25;11.86;97.60
80290;SHT30;69592;44.804;-0.550;2024-02-26T01:27:50;11.86;97.19
80290;SHT30;69592;44.804;-0.550;2024-02-26T01:30:16;11.87;96.89
80290;SHT30;69592;44.804;-0.550;2024-02-26T01:32:42;11.85;96.46
80290;SHT30;69592;44.804;-0.550;2024-02-26T01:35:08;11.89;96.35
80290;SHT30;69592;44.804;-0.550;2024-02-26T01:37:35;11.89;96.26
80290;SHT30;69592;44.804;-0.550;2024-02-26T01:40:01;11.93;96.09
80290;SHT30;69592;44.804;-0.550;2024-02-26T01:42:31;11.90;96.15
80290;SHT30;69592;44.804;-0.550;2024-02-26T01:44:58;11.90;96.00
80290;SHT30;69592;44.804;-0.550;2024-02-26T01:47:23;11.92;96.12
80290;SHT30;69592;44.804;-0.550;2024-02-26T01:49:49;11.96;96.41
80290;SHT30;69592;44.804;-0.550;2024-02-26T01:52:15;11.96;96.35
80290;SHT30;69592;44.804;-0.550;2024-02-26T01:54:42;12.02;96.57
80290;SHT30;69592;44.804;-0.550;2024-02-26T01:57:10;11.97;96.83
80290;SHT30;69592;44.804;-0.550;2024-02-26T01:59:36;11.94;97.02
80290;SHT30;69592;44.804;-0.550;2024-02-26T02:02:06;11.90;97.12
80290;SHT30;69592;44.804;-0.550;2024-02-26T02:04:32;11.83;97.48
80290;SHT30;69592;44.804;-0.550;2024-02-26T02:06:58;11.87;97.37
80290;SHT30;69592;44.804;-0.550;2024-02-26T02:09:26;11.86;97.38
80290;SHT30;69592;44.804;-0.550;2024-02-26T02:11:51;11.94;97.44
80290;SHT30;69592;44.804;-0.550;2024-02-26T02:14:17;11.93;97.73
80290;SHT30;69592;44.804;-0.550;2024-02-26T02:16:42;11.94;97.59
80290;SHT30;69592;44.804;-0.550;2024-02-26T02:19:08;11.86;97.70
80290;SHT30;69592;44.804;-0.550;2024-02-26T02:21:33;11.86;97.66
80290;SHT30;69592;44.804;-0.550;2024-02-26T02:23:58;11.85;97.19
80290;SHT30;69592;44.804;-0.550;2024-02-26T02:26:24;11.89;97.14
80290;SHT30;69592;44.804;-0.550;2024-02-26T02:28:49;11.89;96.72
80290;SHT30;69592;44.804;-0.550;2024-02-26T02:31:15;11.90;96.96
80290;SHT30;69592;44.804;-0.550;2024-02-26T02:33:41;12.02;96.68
80290;SHT30;69592;44.804;-0.550;2024-02-26T02:36:07;11.99;96.50
80290;SHT30;69592;44.804;-0.550;2024-02-26T02:38:36;11.93;96.41
80290;SHT30;69592;44.804;-0.550;2024-02-26T02:41:02;11.85;96.24
80290;SHT30;69592;44.804;-0.550;2024-02-26T02:43:27;11.89;95.82
80290;SHT30;69592;44.804;-0.550;2024-02-26T02:45:52;11.87;95.24
80290;SHT30;69592;44.804;-0.550;2024-02-26T02:48:18;11.96;95.24
80290;SHT30;69592;44.804;-0.550;2024-02-26T02:50:43;11.94;95.00
80290;SHT30;69592;44.804;-0.550;2024-02-26T02:53:08;11.94;94.79
80290;SHT30;69592;44.804;-0.550;2024-02-26T02:55:34;11.92;94.93
80290;SHT30;69592;44.804;-0.550;2024-02-26T02:57:59;11.87;94.88
80290;SHT30;69592;44.804;-0.550;2024-02-26T03:00:25;11.82;95.59
80290;SHT30;69592;44.804;-0.550;2024-02-26T03:02:50;11.75;95.84
80290;SHT30;69592;44.804;-0.550;2024-02-26T03:05:15;11.62;95.93
80290;SHT30;69592;44.804;-0.550;2024-02-26T03:07:41;11.63;95.73
80290;SHT30;69592;44.804;-0.550;2024-02-26T03:10:06;11.65;95.91
80290;SHT30;69592;44.804;-0.550;2024-02-26T03:12:33;11.66;95.67
80290;SHT30;69592;44.804;-0.550;2024-02-26T03:14:59;11.61;95.94
80290;SHT30;69592;44.804;-0.550;2024-02-26T03:17:30;11.57;95.76
80290;SHT30;69592;44.804;-0.550;2024-02-26T03:19:56;11.54;95.92
80290;SHT30;69592;44.804;-0.550;2024-02-26T03:22:21;11.52;95.69
80290;SHT30;69592;44.804;-0.550;2024-02-26T03:24:47;11.54;95.37
80290;SHT30;69592;44.804;-0.550;2024-02-26T03:27:13;11.58;95.00
80290;SHT30;69592;44.804;-0.550;2024-02-26T03:29:38;11.61;94.98
80290;SHT30;69592;44.804;-0.550;2024-02-26T03:32:05;11.63;94.94
80290;SHT30;69592;44.804;-0.550;2024-02-26T03:34:31;11.68;94.64
80290;SHT30;69592;44.804;-0.550;2024-02-26T03:36:56;11.62;94.83
80290;SHT30;69592;44.804;-0.550;2024-02-26T03:39:22;11.70;94.83
80290;SHT30;69592;44.804;-0.550;2024-02-26T03:41:48;11.63;94.95
80290;SHT30;69592;44.804;-0.550;2024-02-26T03:44:14;11.68;95.15
80290;SHT30;69592;44.804;-0.550;2024-02-26T03:46:39;11.70;95.23
80290;SHT30;69592;44.804;-0.550;2024-02-26T03:49:05;11.70;95.53
80290;SHT30;69592;44.804;-0.550;2024-02-26T03:51:31;11.73;95.64
80290;SHT30;69592;44.804;-0.550;2024-02-26T03:53:58;11.70;95.82
80290;SHT30;69592;44.804;-0.550;2024-02-26T03:56:24;11.65;95.95
80290;SHT30;69592;44.804;-0.550;2024-02-26T03:58:49;11.65;96.23
80290;SHT30;69592;44.804;-0.550;2024-02-26T04:01:14;11.69;96.27
80290;SHT30;69592;44.804;-0.550;2024-02-26T04:03:40;11.65;96.37
80290;SHT30;69592;44.804;-0.550;2024-02-26T04:06:08;11.66;95.95
80290;SHT30;69592;44.804;-0.550;2024-02-26T04:08:35;11.61;96.31
80290;SHT30;69592;44.804;-0.550;2024-02-26T04:11:00;11.63;95.92
80290;SHT30;69592;44.804;-0.550;2024-02-26T04:13:25;11.65;95.60
80290;SHT30;69592;44.804;-0.550;2024-02-26T04:15:51;11.66;95.19
80290;SHT30;69592;44.804;-0.550;2024-02-26T04:18:16;11.62;95.75
80290;SHT30;69592;44.804;-0.550;2024-02-26T04:20:41;11.59;95.38
80290;SHT30;69592;44.804;-0.550;2024-02-26T04:23:07;11.59;95.63
80290;SHT30;69592;44.804;-0.550;2024-02-26T04:25:32;11.55;95.47
80290;SHT30;69592;44.804;-0.550;2024-02-26T04:27:58;11.43;95.53
80290;SHT30;69592;44.804;-0.550;2024-02-26T04:30:23;11.51;95.61
80290;SHT30;69592;44.804;-0.550;2024-02-26T04:32:49;11.49;95.47
80290;SHT30;69592;44.804;-0.550;2024-02-26T04:35:14;11.45;95.75
80290;SHT30;69592;44.804;-0.550;2024-02-26T04:37:39;11.45;95.21
80290;SHT30;69592;44.804;-0.550;2024-02-26T04:40:05;11.46;94.93
80290;SHT30;69592;44.804;-0.550;2024-02-26T04:42:31;11.39;95.12
80290;SHT30;69592;44.804;-0.550;2024-02-26T04:44:56;11.39;94.93
80290;SHT30;69592;44.804;-0.550;2024-02-26T04:47:22;11.36;94.93
80290;SHT30;69592;44.804;-0.550;2024-02-26T04:49:49;11.34;94.72
80290;SHT30;69592;44.804;-0.550;2024-02-26T04:52:15;11.42;94.51
80290;SHT30;69592;44.804;-0.550;2024-02-26T04:54:40;11.46;94.63
80290;SHT30;69592;44.804;-0.550;2024-02-26T04:57:05;11.42;94.50
80290;SHT30;69592;44.804;-0.550;2024-02-26T04:59:31;11.38;94.57
80290;SHT30;69592;44.804;-0.550;2024-02-26T05:01:56;11.43;94.50
80290;SHT30;69592;44.804;-0.550;2024-02-26T05:04:21;11.46;94.71
80290;SHT30;69592;44.804;-0.550;2024-02-26T05:06:47;11.46;94.68
80290;SHT30;69592;44.804;-0.550;2024-02-26T05:09:12;11.39;95.05
80290;SHT30;69592;44.804;-0.550;2024-02-26T05:11:38;11.46;95.15
80290;SHT30;69592;44.804;-0.550;2024-02-26T05:14:03;11.49;95.41
80290;SHT30;69592;44.804;-0.550;2024-02-26T05:16:29;11.48;95.41
80290;SHT30;69592;44.804;-0.550;2024-02-26T05:18:56;11.49;95.67
80290;SHT30;69592;44.804;-0.550;2024-02-26T05:21:21;11.49;95.52
80290;SHT30;69592;44.804;-0.550;2024-02-26T05:23:47;11.58;95.70
80290;SHT30;69592;44.804;-0.550;2024-02-26T05:26:19;11.58;96.01
80290;SHT30;69592;44.804;-0.550;2024-02-26T05:28:44;11.52;96.28
80290;SHT30;69592;44.804;-0.550;2024-02-26T05:31:12;11.55;96.37
80290;SHT30;69592;44.804;-0.550;2024-02-26T05:33:38;11.61;95.96
80290;SHT30;69592;44.804;-0.550;2024-02-26T05:36:03;11.55;95.66
80290;SHT30;69592;44.804;-0.550;2024-02-26T05:38:30;11.57;95.52
80290;SHT30;69592;44.804;-0.550;2024-02-26T05:40:57;11.59;95.35
80290;SHT30;69592;44.804;-0.550;2024-02-26T05:43:23;11.61;94.85
80290;SHT30;69592;44.804;-0.550;2024-02-26T05:45:48;11.61;94.78
80290;SHT30;69592;44.804;-0.550;2024-02-26T05:48:14;11.63;94.85
80290;SHT30;69592;44.804;-0.550;2024-02-26T05:50:39;11.46;95.66
80290;SHT30;69592;44.804;-0.550;2024-02-26T05:53:04;11.55;95.37
80290;SHT30;69592;44.804;-0.550;2024-02-26T05:55:30;11.59;95.48
80290;SHT30;69592;44.804;-0.550;2024-02-26T05:57:55;11.58;95.35
80290;SHT30;69592;44.804;-0.550;2024-02-26T06:00:21;11.59;95.71
80290;SHT30;69592;44.804;-0.550;2024-02-26T06:02:46;11.45;96.08
80290;SHT30;69592;44.804;-0.550;2024-02-26T06:05:11;11.49;96.37
80290;SHT30;69592;44.804;-0.550;2024-02-26T06:07:37;11.45;96.47
80290;SHT30;69592;44.804;-0.550;2024-02-26T06:10:03;11.51;96.25
80290;SHT30;69592;44.804;-0.550;2024-02-26T06:12:30;11.52;96.36
80290;SHT30;69592;44.804;-0.550;2024-02-26T06:14:56;11.54;96.36
80290;SHT30;69592;44.804;-0.550;2024-02-26T06:17:21;11.57;95.90
80290;SHT30;69592;44.804;-0.550;2024-02-26T06:19:47;11.59;96.16
80290;SHT30;69592;44.804;-0.550;2024-02-26T06:22:12;11.54;96.41
80290;SHT30;69592;44.804;-0.550;2024-02-26T06:24:37;11.55;96.71
80290;SHT30;69592;44.804;-0.550;2024-02-26T06:27:03;11.43;96.71
80290;SHT30;69592;44.804;-0.550;2024-02-26T06:29:28;11.51;96.96
80290;SHT30;69592;44.804;-0.550;2024-02-26T06:31:54;11.51;97.28
80290;SHT30;69592;44.804;-0.550;2024-02-26T06:34:20;11.51;97.63
80290;SHT30;69592;44.804;-0.550;2024-02-26T06:36:45;11.51;97.63
80290;SHT30;69592;44.804;-0.550;2024-02-26T06:39:11;11.52;97.78
80290;SHT30;69592;44.804;-0.550;2024-02-26T06:41:37;11.57;97.97
80290;SHT30;69592;44.804;-0.550;2024-02-26T06:44:04;11.51;98.17
80290;SHT30;69592;44.804;-0.550;2024-02-26T06:46:30;11.49;98.04
80290;SHT30;69592;44.804;-0.550;2024-02-26T06:48:55;11.43;98.06
80290;SHT30;69592;44.804;-0.550;2024-02-26T06:51:21;11.46;97.89
80290;SHT30;69592;44.804;-0.550;2024-02-26T06:53:46;11.48;97.85
80290;SHT30;69592;44.804;-0.550;2024-02-26T06:56:12;11.45;97.66
80290;SHT30;69592;44.804;-0.550;2024-02-26T06:58:37;11.45;97.75
80290;SHT30;69592;44.804;-0.550;2024-02-26T07:01:03;11.49;97.54
80290;SHT30;69592;44.804;-0.550;2024-02-26T07:03:28;11.43;97.41
80290;SHT30;69592;44.804;-0.550;2024-02-26T07:05:55;11.48;97.39
80290;SHT30;69592;44.804;-0.550;2024-02-26T07:08:20;11.48;97.45
80290;SHT30;69592;44.804;-0.550;2024-02-26T07:10:46;11.51;97.21
80290;SHT30;69592;44.804;-0.550;2024-02-26T07:13:12;11.42;96.78
80290;SHT30;69592;44.804;-0.550;2024-02-26T07:15:37;11.45;96.59
80290;SHT30;69592;44.804;-0.550;2024-02-26T07:18:03;11.42;96.20
80290;SHT30;69592;44.804;-0.550;2024-02-26T07:20:31;11.46;96.26
80290;SHT30;69592;44.804;-0.550;2024-02-26T07:22:57;11.51;96.53
80290;SHT30;69592;44.804;-0.550;2024-02-26T07:25:23;11.45;96.50
80290;SHT30;69592;44.804;-0.550;2024-02-26T07:27:50;11.52;96.61
80290;SHT30;69592;44.804;-0.550;2024-02-26T07:30:15;11.54;96.25
80290;SHT30;69592;44.804;-0.550;2024-02-26T07:32:42;11.58;96.58
80290;SHT30;69592;44.804;-0.550;2024-02-26T07:35:07;11.57;96.45
80290;SHT30;69592;44.804;-0.550;2024-02-26T07:37:33;11.57;96.56
80290;SHT30;69592;44.804;-0.550;2024-02-26T07:39:58;11.51;97.34
80290;SHT30;69592;44.804;-0.550;2024-02-26T07:42:24;11.49;97.29
80290;SHT30;69592;44.804;-0.550;2024-02-26T07:44:50;11.49;97.56
80290;SHT30;69592;44.804;-0.550;2024-02-26T07:47:16;11.46;97.74
80290;SHT30;69592;44.804;-0.550;2024-02-26T07:49:41;11.42;97.88
80290;SHT30;69592;44.804;-0.550;2024-02-26T07:52:07;11.45;98.06
80290;SHT30;69592;44.804;-0.550;2024-02-26T07:54:32;11.43;98.30
80290;SHT30;69592;44.804;-0.550;2024-02-26T07:56:57;11.42;98.21
80290;SHT30;69592;44.804;-0.550;2024-02-26T07:59:23;11.31;98.36
80290;SHT30;69592;44.804;-0.550;2024-02-26T08:01:52;11.32;98.42
80290;SHT30;69592;44.804;-0.550;2024-02-26T08:04:18;11.34;98.22
80290;SHT30;69592;44.804;-0.550;2024-02-26T08:06:43;11.28;98.17
80290;SHT30;69592;44.804;-0.550;2024-02-26T08:09:08;11.32;98.23
80290;SHT30;69592;44.804;-0.550;2024-02-26T08:11:34;11.39;98.06
80290;SHT30;69592;44.804;-0.550;2024-02-26T08:14:00;11.22;97.63
80290;SHT30;69592;44.804;-0.550;2024-02-26T08:16:25;11.29;97.65
80290;SHT30;69592;44.804;-0.550;2024-02-26T08:18:50;11.32;96.97
80290;SHT30;69592;44.804;-0.550;2024-02-26T08:21:16;11.28;96.65
80290;SHT30;69592;44.804;-0.550;2024-02-26T08:23:43;11.18;96.65
80290;SHT30;69592;44.804;-0.550;2024-02-26T08:26:09;11.19;96.51
80290;SHT30;69592;44.804;-0.550;2024-02-26T08:28:37;11.12;96.60
80290;SHT30;69592;44.804;-0.550;2024-02-26T08:31:02;11.08;96.66
80290;SHT30;69592;44.804;-0.550;2024-02-26T08:33:28;11.03;96.89
80290;SHT30;69592;44.804;-0.550;2024-02-26T08:35:54;11.04;97.16
80290;SHT30;69592;44.804;-0.550;2024-02-26T08:38:19;11.00;97.46
80290;SHT30;69592;44.804;-0.550;2024-02-26T08:40:44;10.93;97.73
80290;SHT30;69592;44.804;-0.550;2024-02-26T08:43:10;10.84;97.69
80290;SHT30;69592;44.804;-0.550;2024-02-26T08:45:36;10.85;97.95
80290;SHT30;69592;44.804;-0.550;2024-02-26T08:48:01;10.85;97.85
80290;SHT30;69592;44.804;-0.550;2024-02-26T08:50:27;10.85;97.97
80290;SHT30;69592;44.804;-0.550;2024-02-26T08:52:52;10.91;97.85
80290;SHT30;69592;44.804;-0.550;2024-02-26T08:55:18;10.97;97.49
80290;SHT30;69592;44.804;-0.550;2024-02-26T08:57:44;10.97;97.50
80290;SHT30;69592;44.804;-0.550;2024-02-26T09:00:10;11.00;97.35
80290;SHT30;69592;44.804;-0.550;2024-02-26T09:02:36;11.08;97.15
80290;SHT30;69592;44.804;-0.550;2024-02-26T09:05:04;11.10;96.89
80290;SHT30;69592;44.804;-0.550;2024-02-26T09:07:30;11.14;97.03
80290;SHT30;69592;44.804;-0.550;2024-02-26T09:09:56;11.08;97.07
80290;SHT30;69592;44.804;-0.550;2024-02-26T09:12:21;11.17;97.02
80290;SHT30;69592;44.804;-0.550;2024-02-26T09:14:47;11.24;96.42
80290;SHT30;69592;44.804;-0.550;2024-02-26T09:17:12;11.22;96.46
80290;SHT30;69592;44.804;-0.550;2024-02-26T09:19:38;11.24;96.30
80290;SHT30;69592;44.804;-0.550;2024-02-26T09:22:04;11.27;96.15
80290;SHT30;69592;44.804;-0.550;2024-02-26T09:24:32;11.35;96.35
80290;SHT30;69592;44.804;-0.550;2024-02-26T09:26:57;11.42;96.10
80290;SHT30;69592;44.804;-0.550;2024-02-26T09:29:23;11.52;96.16
80290;SHT30;69592;44.804;-0.550;2024-02-26T09:31:48;11.70;96.01
80290;SHT30;69592;44.804;-0.550;2024-02-26T09:34:13;11.75;95.77
80290;SHT30;69592;44.804;-0.550;2024-02-26T09:36:39;11.73;96.12
80290;SHT30;69592;44.804;-0.550;2024-02-26T09:39:05;11.65;96.66
80290;SHT30;69592;44.804;-0.550;2024-02-26T09:41:32;11.54;96.49
80290;SHT30;69592;44.804;-0.550;2024-02-26T09:43:58;11.55;97.03
80290;SHT30;69592;44.804;-0.550;2024-02-26T09:46:28;11.57;97.12
80290;SHT30;69592;44.804;-0.550;2024-02-26T09:48:54;11.68;97.19
80290;SHT30;69592;44.804;-0.550;2024-02-26T09:51:22;11.72;97.60
80290;SHT30;69592;44.804;-0.550;2024-02-26T09:53:51;11.96;97.27
80290;SHT30;69592;44.804;-0.550;2024-02-26T09:56:16;12.03;96.77
80290;SHT30;69592;44.804;-0.550;2024-02-26T09:58:42;12.06;96.79
80290;SHT30;69592;44.804;-0.550;2024-02-26T10:01:13;11.86;97.73
80290;SHT30;69592;44.804;-0.550;2024-02-26T10:03:42;11.76;98.34
80290;SHT30;69592;44.804;-0.550;2024-02-26T10:06:12;11.92;98.17
80290;SHT30;69592;44.804;-0.550;2024-02-26T10:08:38;11.90;98.05
80290;SHT30;69592;44.804;-0.550;2024-02-26T10:11:05;12.03;97.78
80290;SHT30;69592;44.804;-0.550;2024-02-26T10:13:31;12.09;97.60
80290;SHT30;69592;44.804;-0.550;2024-02-26T10:15:57;12.14;97.43
80290;SHT30;69592;44.804;-0.550;2024-02-26T10:18:26;12.19;97.35
80290;SHT30;69592;44.804;-0.550;2024-02-26T10:21:02;12.21;97.86
80290;SHT30;69592;44.804;-0.550;2024-02-26T10:23:27;12.27;97.25
80290;SHT30;69592;44.804;-0.550;2024-02-26T10:25:56;12.29;96.55
80290;SHT30;69592;44.804;-0.550;2024-02-26T10:28:22;12.44;96.50
80290;SHT30;69592;44.804;-0.550;2024-02-26T10:30:48;12.54;96.64
80290;SHT30;69592;44.804;-0.550;2024-02-26T10:33:13;12.71;96.49
80290;SHT30;69592;44.804;-0.550;2024-02-26T10:35:44;12.89;96.30
80290;SHT30;69592;44.804;-0.550;2024-02-26T10:38:10;13.08;95.96
80290;SHT30;69592;44.804;-0.550;2024-02-26T10:40:37;13.12;95.47
80290;SHT30;69592;44.804;-0.550;2024-02-26T10:43:02;13.29;95.65
80290;SHT30;69592;44.804;-0.550;2024-02-26T10:45:27;13.62;95.05
80290;SHT30;69592;44.804;-0.550;2024-02-26T10:47:53;13.56;93.87
80290;SHT30;69592;44.804;-0.550;2024-02-26T10:50:19;13.73;93.70
80290;SHT30;69592;44.804;-0.550;2024-02-26T10:52:45;13.77;93.78
80290;SHT30;69592;44.804;-0.550;2024-02-26T10:55:15;13.65;93.77
80290;SHT30;69592;44.804;-0.550;2024-02-26T10:57:44;13.50;94.31
80290;SHT30;69592;44.804;-0.550;2024-02-26T11:00:14;13.69;93.91
80290;SHT30;69592;44.804;-0.550;2024-02-26T11:02:41;13.86;94.20
80290;SHT30;69592;44.804;-0.550;2024-02-26T11:05:08;14.17;93.53
80290;SHT30;69592;44.804;-0.550;2024-02-26T11:07:37;14.25;92.88
80290;SHT30;69592;44.804;-0.550;2024-02-26T11:10:24;14.27;92.45
80290;SHT30;69592;44.804;-0.550;2024-02-26T11:12:52;14.38;92.16
80290;SHT30;69592;44.804;-0.550;2024-02-26T11:15:24;14.28;93.11
80290;SHT30;69592;44.804;-0.550;2024-02-26T11:17:53;14.18;93.25
80290;SHT30;69592;44.804;-0.550;2024-02-26T11:20:19;14.14;92.75
80290;SHT30;69592;44.804;-0.550;2024-02-26T11:22:45;14.11;93.13
80290;SHT30;69592;44.804;-0.550;2024-02-26T11:25:11;14.22;92.50
80290;SHT30;69592;44.804;-0.550;2024-02-26T11:28:22;14.28;91.98
80290;SHT30;69592;44.804;-0.550;2024-02-26T11:30:49;14.18;92.65
80290;SHT30;69592;44.804;-0.550;2024-02-26T11:33:16;14.10;92.66
80290;SHT30;69592;44.804;-0.550;2024-02-26T11:35:42;13.93;91.88
80290;SHT30;69592;44.804;-0.550;2024-02-26T11:38:08;13.70;92.64
80290;SHT30;69592;44.804;-0.550;2024-02-26T11:40:43;13.76;92.59
80290;SHT30;69592;44.804;-0.550;2024-02-26T11:43:09;13.77;92.82
80290;SHT30;69592;44.804;-0.550;2024-02-26T11:48:14;13.86;93.37
80290;SHT30;69592;44.804;-0.550;2024-02-26T11:50:47;14.17;93.44
80290;SHT30;69592;44.804;-0.550;2024-02-26T11:53:31;14.38;92.57
80290;SHT30;69592;44.804;-0.550;2024-02-26T11:58:47;14.40;91.53
80290;SHT30;69592;44.804;-0.550;2024-02-26T12:01:40;14.57;90.91
80290;SHT30;69592;44.804;-0.550;2024-02-26T12:04:16;14.62;91.38
80290;SHT30;69592;44.804;-0.550;2024-02-26T12:06:45;14.52;89.99
80290;SHT30;69592;44.804;-0.550;2024-02-26T12:09:11;14.35;89.83
80290;SHT30;69592;44.804;-0.550;2024-02-26T12:11:38;14.99;89.46
80290;SHT30;69592;44.804;-0.550;2024-02-26T12:14:06;14.91;89.78
80290;SHT30;69592;44.804;-0.550;2024-02-26T12:16:39;14.68;90.30
80290;SHT30;69592;44.804;-0.550;2024-02-26T12:19:06;14.65;90.14
80290;SHT30;69592;44.804;-0.550;2024-02-26T12:21:34;14.55;90.62
80290;SHT30;69592;44.804;-0.550;2024-02-26T12:24:12;14.10;91.16
80290;SHT30;69592;44.804;-0.550;2024-02-26T12:26:38;13.77;93.91
80290;SHT30;69592;44.804;-0.550;2024-02-26T12:29:04;13.39;93.00
80290;SHT30;69592;44.804;-0.550;2024-02-26T12:31:30;13.16;94.91
80290;SHT30;69592;44.804;-0.550;2024-02-26T12:33:56;13.09;95.64
80290;SHT30;69592;44.804;-0.550;2024-02-26T12:36:22;13.42;95.42
80290;SHT30;69592;44.804;-0.550;2024-02-26T12:38:50;13.47;94.99
80290;SHT30;69592;44.804;-0.550;2024-02-26T12:41:16;13.32;93.59
80290;SHT30;69592;44.804;-0.550;2024-02-26T12:43:42;13.22;94.87
80290;SHT30;69592;44.804;-0.550;2024-02-26T12:46:13;13.32;95.10
80290;SHT30;69592;44.804;-0.550;2024-02-26T12:48:42;13.43;95.33
80290;SHT30;69592;44.804;-0.550;2024-02-26T12:51:08;13.59;94.05
80290;SHT30;69592;44.804;-0.550;2024-02-26T12:53:35;13.47;92.17
80290;SHT30;69592;44.804;-0.550;2024-02-26T12:56:02;13.40;93.48
80290;SHT30;69592;44.804;-0.550;2024-02-26T12:58:29;13.40;91.47
80290;SHT30;69592;44.804;-0.550;2024-02-26T13:00:56;13.39;91.54
80290;SHT30;69592;44.804;-0.550;2024-02-26T13:03:22;13.19;92.11
80290;SHT30;69592;44.804;-0.550;2024-02-26T13:05:48;13.35;91.41
80290;SHT30;69592;44.804;-0.550;2024-02-26T13:08:20;13.45;92.06
80290;SHT30;69592;44.804;-0.550;2024-02-26T13:10:46;13.80;91.34
80290;SHT30;69592;44.804;-0.550;2024-02-26T13:13:14;13.80;90.66
80290;SHT30;69592;44.804;-0.550;2024-02-26T13:15:41;13.88;91.69
80290;SHT30;69592;44.804;-0.550;2024-02-26T13:18:11;14.16;90.04
80290;SHT30;69592;44.804;-0.550;2024-02-26T13:20:37;13.98;90.22
80290;SHT30;69592;44.804;-0.550;2024-02-26T13:23:07;13.98;89.89
80290;SHT30;69592;44.804;-0.550;2024-02-26T13:25:34;14.08;89.72
80290;SHT30;69592;44.804;-0.550;2024-02-26T13:30:34;13.69;90.77
80290;SHT30;69592;44.804;-0.550;2024-02-26T13:33:12;13.40;89.40
80290;SHT30;69592;44.804;-0.550;2024-02-26T13:35:38;12.77;92.68
80290;SHT30;69592;44.804;-0.550;2024-02-26T13:38:05;12.73;93.32
80290;SHT30;69592;44.804;-0.550;2024-02-26T13:40:31;12.65;91.97
80290;SHT30;69592;44.804;-0.550;2024-02-26T13:42:57;12.58;92.24
80290;SHT30;69592;44.804;-0.550;2024-02-26T13:45:22;12.69;92.35
80290;SHT30;69592;44.804;-0.550;2024-02-26T13:47:48;12.74;93.30
80290;SHT30;69592;44.804;-0.550;2024-02-26T13:50:13;12.48;92.64
80290;SHT30;69592;44.804;-0.550;2024-02-26T13:52:38;12.26;94.05
80290;SHT30;69592;44.804;-0.550;2024-02-26T13:55:04;12.31;93.68
80290;SHT30;69592;44.804;-0.550;2024-02-26T13:57:30;12.47;93.77
80290;SHT30;69592;44.804;-0.550;2024-02-26T13:59:55;12.50;93.57
80290;SHT30;69592;44.804;-0.550;2024-02-26T14:02:21;12.55;92.60
80290;SHT30;69592;44.804;-0.550;2024-02-26T14:04:46;12.60;93.05
80290;SHT30;69592;44.804;-0.550;2024-02-26T14:07:12;12.83;92.59
80290;SHT30;69592;44.804;-0.550;2024-02-26T14:09:37;12.89;92.84
80290;SHT30;69592;44.804;-0.550;2024-02-26T14:12:03;12.89;92.60
80290;SHT30;69592;44.804;-0.550;2024-02-26T14:14:29;13.08;92.94
80290;SHT30;69592;44.804;-0.550;2024-02-26T14:16:58;12.96;92.48
80290;SHT30;69592;44.804;-0.550;2024-02-26T14:19:23;12.87;92.22
80290;SHT30;69592;44.804;-0.550;2024-02-26T14:21:48;13.20;92.77
80290;SHT30;69592;44.804;-0.550;2024-02-26T14:24:14;13.14;91.83
80290;SHT30;69592;44.804;-0.550;2024-02-26T14:26:48;13.23;90.20
80290;SHT30;69592;44.804;-0.550;2024-02-26T14:29:16;12.98;91.32
80290;SHT30;69592;44.804;-0.550;2024-02-26T14:31:41;13.02;91.26
80290;SHT30;69592;44.804;-0.550;2024-02-26T14:34:07;12.37;92.44
80290;SHT30;69592;44.804;-0.550;2024-02-26T14:36:34;11.66;98.59
80290;SHT30;69592;44.804;-0.550;2024-02-26T14:38:59;11.17;97.45
80290;SHT30;69592;44.804;-0.550;2024-02-26T14:41:27;11.14;97.17
80290;SHT30;69592;44.804;-0.550;2024-02-26T14:43:53;10.94;97.59
80290;SHT30;69592;44.804;-0.550;2024-02-26T14:46:18;10.71;97.17
80290;SHT30;69592;44.804;-0.550;2024-02-26T14:48:43;10.94;97.80
80290;SHT30;69592;44.804;-0.550;2024-02-26T14:51:09;11.08;97.30
80290;SHT30;69592;44.804;-0.550;2024-02-26T14:53:35;11.18;97.30
80290;SHT30;69592;44.804;-0.550;2024-02-26T14:56:00;11.31;97.23
80290;SHT30;69592;44.804;-0.550;2024-02-26T14:58:25;11.48;97.32
80290;SHT30;69592;44.804;-0.550;2024-02-26T15:00:51;11.45;96.79
80290;SHT30;69592;44.804;-0.550;2024-02-26T15:03:16;11.54;96.48
80290;SHT30;69592;44.804;-0.550;2024-02-26T15:05:42;11.49;97.01
80290;SHT30;69592;44.804;-0.550;2024-02-26T15:08:08;11.62;97.45
80290;SHT30;69592;44.804;-0.550;2024-02-26T15:10:35;11.65;97.02
80290;SHT30;69592;44.804;-0.550;2024-02-26T15:13:00;11.97;96.54
80290;SHT30;69592;44.804;-0.550;2024-02-26T15:15:26;12.00;95.89
80290;SHT30;69592;44.804;-0.550;2024-02-26T15:17:52;12.37;94.90